Time;durP1;ratioP1;P1;durP2;ratioP2;P2;SDS_P1;SDS_P2;PMS_P1;PMS_P2;Temp;Humidity;BMP_temperature;BMP_pressure;BME280_temperature;BME280_humidity;BME280_pressure;Samples;Min_cycle;Max_cycle;Signal;HPM_P1;HPM_P2
2022/01/10 00:01:53;;;;;;;0.00;0.00;;;;;;;;;;5089685;28;20059;-65
2022/01/10 00:04:19;;;;;;;0.00;0.00;;;;;;;;;;5090019;28;20095;-64
2022/01/10 00:06:45;;;;;;;0.00;0.00;;;;;;;;;;5089792;28;20016;-65
2022/01/10 00:09:10;;;;;;;0.00;0.00;;;;;;;;;;5087938;28;20024;-64
2022/01/10 00:11:35;;;;;;;0.00;0.00;;;;;;;;;;5089980;28;20028;-64
2022/01/10 00:14:00;;;;;;;0.03;0.03;;;;;;;;;;5089598;28;20111;-64
2022/01/10 00:16:26;;;;;;;0.00;0.00;;;;;;;;;;5089227;28;20043;-64
2022/01/10 00:18:51;;;;;;;0.00;0.00;;;;;;;;;;5088460;28;20024;-64
2022/01/10 00:21:16;;;;;;;0.00;0.00;;;;;;;;;;5088401;28;20024;-65
2022/01/10 00:23:41;;;;;;;0.00;0.00;;;;;;;;;;5087727;28;20094;-65
2022/01/10 00:26:07;;;;;;;0.00;0.00;;;;;;;;;;5088010;28;20031;-64
2022/01/10 00:28:32;;;;;;;0.00;0.00;;;;;;;;;;5086849;28;20016;-64
2022/01/10 00:30:57;;;;;;;0.00;0.00;;;;;;;;;;5087875;28;20031;-64
2022/01/10 00:33:22;;;;;;;0.75;0.75;;;;;;;;;;5088646;28;20036;-64
2022/01/10 00:35:48;;;;;;;0.10;0.10;;;;;;;;;;5087765;28;20027;-65
2022/01/10 00:38:13;;;;;;;0.03;0.03;;;;;;;;;;5086919;28;20035;-65
2022/01/10 00:40:40;;;;;;;0.00;0.00;;;;;;;;;;5087973;28;20028;-64
2022/01/10 00:43:05;;;;;;;0.00;0.00;;;;;;;;;;5087273;28;20472;-64
2022/01/10 00:45:31;;;;;;;0.00;0.00;;;;;;;;;;5088213;28;20020;-65
2022/01/10 00:47:57;;;;;;;0.00;0.00;;;;;;;;;;5088000;28;20043;-65
2022/01/10 00:50:24;;;;;;;0.00;0.00;;;;;;;;;;5087670;28;20076;-64
2022/01/10 00:52:50;;;;;;;0.00;0.00;;;;;;;;;;5087490;28;20090;-65
2022/01/10 00:55:15;;;;;;;0.00;0.00;;;;;;;;;;5085874;28;20040;-65
2022/01/10 00:57:40;;;;;;;0.00;0.00;;;;;;;;;;5087481;28;20421;-65
2022/01/10 01:00:07;;;;;;;0.00;0.00;;;;;;;;;;5086545;28;20396;-64
2022/01/10 01:02:32;;;;;;;0.00;0.00;;;;;;;;;;5087552;28;20031;-64
2022/01/10 01:05:01;;;;;;;0.00;0.00;;;;;;;;;;5087769;28;20120;-64
2022/01/10 01:07:26;;;;;;;0.00;0.00;;;;;;;;;;5087339;28;20127;-64
2022/01/10 01:10:03;;;;;;;0.00;0.00;;;;;;;;;;5087818;28;20119;-63
2022/01/10 01:12:42;;;;;;;0.00;0.00;;;;;;;;;;5087546;28;20061;-64
2022/01/10 01:15:19;;;;;;;0.10;0.10;;;;;;;;;;5088650;28;20065;-65
2022/01/10 01:25:48;;;;;;;0.00;0.00;;;;;;;;;;5087479;28;20117;-64
2022/01/10 01:28:14;;;;;;;0.00;0.00;;;;;;;;;;5088619;28;20083;-64
2022/01/10 01:30:39;;;;;;;0.00;0.00;;;;;;;;;;5088358;28;20051;-64
2022/01/10 01:33:04;;;;;;;0.00;0.00;;;;;;;;;;5088219;28;20036;-64
2022/01/10 01:35:29;;;;;;;0.00;0.00;;;;;;;;;;5086630;28;20038;-63
2022/01/10 01:37:55;;;;;;;0.00;0.00;;;;;;;;;;5087931;28;20024;-64
2022/01/10 01:40:22;;;;;;;0.00;0.00;;;;;;;;;;5087789;28;20020;-64
2022/01/10 01:42:47;;;;;;;0.00;0.00;;;;;;;;;;5087383;28;20031;-65
2022/01/10 01:45:13;;;;;;;0.00;0.00;;;;;;;;;;5087481;28;20020;-65
2022/01/10 01:47:38;;;;;;;0.00;0.00;;;;;;;;;;5087501;28;20024;-65
2022/01/10 01:50:05;;;;;;;0.00;0.00;;;;;;;;;;5087710;28;20109;-65
2022/01/10 01:52:30;;;;;;;0.00;0.00;;;;;;;;;;5088153;28;20074;-65
2022/01/10 01:54:56;;;;;;;0.00;0.00;;;;;;;;;;5087421;28;20039;-64
2022/01/10 01:57:21;;;;;;;0.00;0.00;;;;;;;;;;5088317;28;20020;-64
2022/01/10 01:59:46;;;;;;;0.00;0.00;;;;;;;;;;5088347;28;20475;-65
2022/01/10 02:02:11;;;;;;;0.00;0.00;;;;;;;;;;5088271;28;20024;-65
2022/01/10 02:04:37;;;;;;;0.00;0.00;;;;;;;;;;5087062;28;20028;-65
2022/01/10 02:07:02;;;;;;;0.00;0.00;;;;;;;;;;5088275;28;20100;-65
2022/01/10 02:09:27;;;;;;;0.00;0.00;;;;;;;;;;5088422;28;20028;-64
2022/01/10 02:11:53;;;;;;;0.00;0.00;;;;;;;;;;5087869;28;20495;-64
2022/01/10 02:14:18;;;;;;;0.00;0.00;;;;;;;;;;5087457;28;20082;-64
2022/01/10 02:16:51;;;;;;;0.00;0.00;;;;;;;;;;5087378;28;20035;-65
2022/01/10 02:19:16;;;;;;;0.00;0.00;;;;;;;;;;5087692;28;20032;-65
2022/01/10 02:21:42;;;;;;;0.00;0.00;;;;;;;;;;5087751;28;20491;-64
2022/01/10 02:24:07;;;;;;;0.00;0.00;;;;;;;;;;5087579;28;20020;-64
2022/01/10 02:26:33;;;;;;;0.00;0.00;;;;;;;;;;5087759;28;20107;-65
2022/01/10 02:28:59;;;;;;;3.45;3.25;;;;;;;;;;5088247;28;20097;-65
2022/01/10 02:31:24;;;;;;;0.00;0.00;;;;;;;;;;5091642;28;20055;-65
2022/01/10 02:33:51;;;;;;;0.00;0.00;;;;;;;;;;5089996;28;20020;-64
2022/01/10 02:36:24;;;;;;;0.00;0.00;;;;;;;;;;5091323;28;20035;-64
2022/01/10 02:38:51;;;;;;;0.00;0.00;;;;;;;;;;5091420;28;20039;-64
2022/01/10 02:41:20;;;;;;;0.00;0.00;;;;;;;;;;5090203;28;20023;-65
2022/01/10 02:43:46;;;;;;;0.00;0.00;;;;;;;;;;5090601;28;20020;-64
2022/01/10 02:46:12;;;;;;;0.00;0.00;;;;;;;;;;5090323;28;20496;-64
2022/01/10 02:48:37;;;;;;;0.00;0.00;;;;;;;;;;5091271;28;20831;-65
2022/01/10 02:51:02;;;;;;;0.00;0.00;;;;;;;;;;5090068;28;20032;-64
2022/01/10 02:53:28;;;;;;;0.32;0.32;;;;;;;;;;5091155;28;20020;-64
2022/01/10 02:55:53;;;;;;;0.00;0.00;;;;;;;;;;5089245;28;20447;-64
2022/01/10 02:58:18;;;;;;;0.05;0.05;;;;;;;;;;5090224;28;20074;-64
2022/01/10 03:00:43;;;;;;;0.00;0.00;;;;;;;;;;5091335;28;20016;-65
2022/01/10 03:03:08;;;;;;;0.00;0.00;;;;;;;;;;5088920;28;20450;-64
2022/01/10 03:05:34;;;;;;;0.00;0.00;;;;;;;;;;5091073;28;20460;-64
2022/01/10 03:08:02;;;;;;;0.00;0.00;;;;;;;;;;5090798;28;20399;-64
2022/01/10 03:10:27;;;;;;;3.70;3.60;;;;;;;;;;5091391;28;20024;-65
2022/01/10 03:12:53;;;;;;;2.30;2.30;;;;;;;;;;5090845;28;20020;-65
2022/01/10 03:15:18;;;;;;;0.00;0.00;;;;;;;;;;5091216;28;20366;-65
2022/01/10 03:17:43;;;;;;;0.00;0.00;;;;;;;;;;5091222;28;20036;-65
2022/01/10 03:20:09;;;;;;;0.00;0.00;;;;;;;;;;5090229;28;20027;-65
2022/01/10 03:22:34;;;;;;;0.00;0.00;;;;;;;;;;5091168;28;20035;-65
2022/01/10 03:25:00;;;;;;;0.00;0.00;;;;;;;;;;5089977;28;20062;-65
2022/01/10 03:27:25;;;;;;;0.00;0.00;;;;;;;;;;5090818;28;20020;-65
2022/01/10 03:29:51;;;;;;;0.00;0.00;;;;;;;;;;5090202;28;20114;-65
2022/01/10 03:32:16;;;;;;;0.00;0.00;;;;;;;;;;5088341;28;20040;-65
2022/01/10 03:34:42;;;;;;;0.00;0.00;;;;;;;;;;5090433;28;20055;-65
2022/01/10 03:37:07;;;;;;;0.00;0.00;;;;;;;;;;5090005;28;20024;-64
2022/01/10 03:39:33;;;;;;;0.00;0.00;;;;;;;;;;5089916;28;20062;-65
2022/01/10 03:41:58;;;;;;;0.88;0.88;;;;;;;;;;5089268;28;20020;-65
2022/01/10 03:44:23;;;;;;;3.50;3.40;;;;;;;;;;5089646;28;20529;-65
2022/01/10 03:46:49;;;;;;;0.00;0.00;;;;;;;;;;5089844;28;20385;-65
2022/01/10 03:49:14;;;;;;;0.10;0.10;;;;;;;;;;5090757;28;20046;-65
2022/01/10 03:51:39;;;;;;;1.55;1.55;;;;;;;;;;5090346;28;20351;-65
2022/01/10 03:54:05;;;;;;;0.00;0.00;;;;;;;;;;5089537;28;20020;-65
2022/01/10 03:56:31;;;;;;;0.00;0.00;;;;;;;;;;5089392;28;20028;-65
2022/01/10 03:58:57;;;;;;;0.00;0.00;;;;;;;;;;5088546;28;20024;-65
2022/01/10 04:01:22;;;;;;;0.00;0.00;;;;;;;;;;5086754;28;20024;-65
2022/01/10 04:03:47;;;;;;;0.00;0.00;;;;;;;;;;5087911;28;20030;-65
2022/01/10 04:06:13;;;;;;;0.00;0.00;;;;;;;;;;5089281;28;20142;-65
2022/01/10 04:08:38;;;;;;;5.80;5.38;;;;;;;;;;5089604;28;20027;-65
2022/01/10 04:11:04;;;;;;;0.00;0.00;;;;;;;;;;5089266;28;20604;-65
2022/01/10 04:13:30;;;;;;;0.00;0.00;;;;;;;;;;5089618;28;20055;-65
2022/01/10 04:15:55;;;;;;;0.00;0.00;;;;;;;;;;5089145;28;20036;-65
2022/01/10 04:18:20;;;;;;;0.00;0.00;;;;;;;;;;5090078;28;20024;-65
2022/01/10 04:20:46;;;;;;;0.00;0.00;;;;;;;;;;5089632;28;20028;-65
2022/01/10 04:23:12;;;;;;;0.40;0.40;;;;;;;;;;5089110;28;20024;-66
2022/01/10 04:25:37;;;;;;;0.00;0.00;;;;;;;;;;5089847;28;20494;-65
2022/01/10 04:28:03;;;;;;;0.00;0.00;;;;;;;;;;5088166;28;20077;-65
2022/01/10 04:30:28;;;;;;;0.00;0.00;;;;;;;;;;5088260;28;20069;-65
2022/01/10 04:32:53;;;;;;;0.57;0.57;;;;;;;;;;5089298;28;20028;-66
2022/01/10 04:35:19;;;;;;;0.00;0.00;;;;;;;;;;5086903;28;20035;-65
2022/01/10 04:37:44;;;;;;;0.03;0.03;;;;;;;;;;5089274;28;20072;-66
2022/01/10 04:40:10;;;;;;;0.00;0.00;;;;;;;;;;5088803;28;20012;-66
2022/01/10 04:42:35;;;;;;;0.00;0.00;;;;;;;;;;5087501;28;20018;-65
2022/01/10 04:45:01;;;;;;;0.20;0.20;;;;;;;;;;5088311;28;20036;-65
2022/01/10 04:47:26;;;;;;;0.00;0.00;;;;;;;;;;5089423;28;20020;-65
2022/01/10 04:52:19;;;;;;;0.00;0.00;;;;;;;;;;5088603;28;20113;-65
2022/01/10 04:54:45;;;;;;;0.00;0.00;;;;;;;;;;5088826;28;20473;-65
2022/01/10 04:57:10;;;;;;;0.13;0.13;;;;;;;;;;5087356;28;20034;-65
2022/01/10 04:59:35;;;;;;;0.00;0.00;;;;;;;;;;5087687;28;20108;-65
2022/01/10 05:02:00;;;;;;;0.00;0.00;;;;;;;;;;5088210;28;20603;-65
2022/01/10 05:04:25;;;;;;;0.00;0.00;;;;;;;;;;5088758;28;20030;-65
2022/01/10 05:06:51;;;;;;;0.00;0.00;;;;;;;;;;5088685;28;20081;-66
2022/01/10 05:09:16;;;;;;;0.00;0.00;;;;;;;;;;5088307;28;20039;-66
2022/01/10 05:11:41;;;;;;;0.20;0.20;;;;;;;;;;5088680;28;20047;-66
2022/01/10 05:14:06;;;;;;;0.00;0.00;;;;;;;;;;5088072;28;20015;-66
2022/01/10 05:16:32;;;;;;;5.78;5.35;;;;;;;;;;5088794;28;20019;-65
2022/01/10 05:18:57;;;;;;;13.57;12.73;;;;;;;;;;5088191;28;20106;-65
2022/01/10 05:21:22;;;;;;;6.07;5.78;;;;;;;;;;5088494;28;20028;-66
2022/01/10 05:23:48;;;;;;;2.85;2.75;;;;;;;;;;5088971;28;20027;-65
2022/01/10 05:26:13;;;;;;;2.30;2.10;;;;;;;;;;5086580;28;20012;-66
2022/01/10 05:28:38;;;;;;;0.32;0.32;;;;;;;;;;5088342;28;20137;-66
2022/01/10 05:31:04;;;;;;;0.90;0.90;;;;;;;;;;5088229;28;20063;-66
2022/01/10 05:33:29;;;;;;;19.95;18.40;;;;;;;;;;5088630;28;20093;-67
2022/01/10 05:35:54;;;;;;;0.00;0.00;;;;;;;;;;5088311;28;20027;-66
2022/01/10 05:38:19;;;;;;;2.05;1.95;;;;;;;;;;5088794;28;20024;-66
2022/01/10 05:40:45;;;;;;;0.00;0.00;;;;;;;;;;5088630;28;20026;-66
2022/01/10 05:43:10;;;;;;;3.42;3.13;;;;;;;;;;5087656;28;20024;-66
2022/01/10 05:45:35;;;;;;;0.00;0.00;;;;;;;;;;5088362;28;20013;-66
2022/01/10 05:48:08;;;;;;;0.00;0.00;;;;;;;;;;5086891;28;20093;-66
2022/01/10 05:50:35;;;;;;;0.00;0.00;;;;;;;;;;5087987;28;20020;-66
2022/01/10 05:53:00;;;;;;;0.00;0.00;;;;;;;;;;5088488;28;20057;-66
2022/01/10 05:55:26;;;;;;;0.73;0.73;;;;;;;;;;5087276;28;20903;-66
2022/01/10 05:57:51;;;;;;;0.00;0.00;;;;;;;;;;5088109;28;20028;-65
2022/01/10 06:00:17;;;;;;;0.00;0.00;;;;;;;;;;5088455;28;20042;-66
2022/01/10 06:02:42;;;;;;;1.20;1.20;;;;;;;;;;5088862;28;20024;-67
2022/01/10 06:05:09;;;;;;;0.00;0.00;;;;;;;;;;5092170;28;20051;-67
2022/01/10 06:07:34;;;;;;;0.65;0.65;;;;;;;;;;5092325;28;20465;-67
2022/01/10 06:10:00;;;;;;;0.00;0.00;;;;;;;;;;5092133;28;20012;-67
2022/01/10 06:12:25;;;;;;;0.00;0.00;;;;;;;;;;5092430;28;20028;-65
2022/01/10 06:14:50;;;;;;;0.00;0.00;;;;;;;;;;5091625;28;20024;-66
2022/01/10 06:17:15;;;;;;;0.00;0.00;;;;;;;;;;5091739;28;20032;-66
2022/01/10 06:19:40;;;;;;;0.00;0.00;;;;;;;;;;5092262;28;20044;-66
2022/01/10 06:22:06;;;;;;;0.00;0.00;;;;;;;;;;5090822;28;20051;-66
2022/01/10 06:24:31;;;;;;;0.00;0.00;;;;;;;;;;5089479;28;20389;-66
2022/01/10 06:26:56;;;;;;;0.00;0.00;;;;;;;;;;5091719;28;20101;-66
2022/01/10 06:29:21;;;;;;;0.20;0.20;;;;;;;;;;5091484;28;20076;-66
2022/01/10 06:31:47;;;;;;;0.00;0.00;;;;;;;;;;5091880;28;20044;-66
2022/01/10 06:34:12;;;;;;;0.00;0.00;;;;;;;;;;5091267;28;20016;-66
2022/01/10 06:36:37;;;;;;;0.00;0.00;;;;;;;;;;5091657;28;20468;-66
2022/01/10 06:39:02;;;;;;;0.00;0.00;;;;;;;;;;5091278;28;20024;-66
2022/01/10 06:41:28;;;;;;;0.00;0.00;;;;;;;;;;5091889;28;20034;-66
2022/01/10 06:43:53;;;;;;;0.00;0.00;;;;;;;;;;5091621;28;20031;-66
2022/01/10 06:46:18;;;;;;;0.00;0.00;;;;;;;;;;5089100;28;20020;-68
2022/01/10 06:48:43;;;;;;;0.10;0.10;;;;;;;;;;5091147;28;20018;-67
2022/01/10 06:51:09;;;;;;;0.03;0.03;;;;;;;;;;5090630;28;20020;-67
2022/01/10 06:53:34;;;;;;;0.00;0.00;;;;;;;;;;5089582;28;20051;-67
2022/01/10 06:55:59;;;;;;;0.00;0.00;;;;;;;;;;5090971;28;20663;-68
2022/01/10 06:58:25;;;;;;;0.00;0.00;;;;;;;;;;5090084;28;20082;-68
2022/01/10 07:00:50;;;;;;;2.15;2.10;;;;;;;;;;5090755;28;20081;-68
2022/01/10 07:03:15;;;;;;;0.00;0.00;;;;;;;;;;5090941;28;20031;-68
2022/01/10 07:05:41;;;;;;;0.00;0.00;;;;;;;;;;5090928;28;20492;-69
2022/01/10 07:08:07;;;;;;;0.00;0.00;;;;;;;;;;5090607;28;20072;-68
2022/01/10 07:10:32;;;;;;;0.00;0.00;;;;;;;;;;5091178;28;20453;-68
2022/01/10 07:12:58;;;;;;;0.00;0.00;;;;;;;;;;5090456;28;20077;-68
2022/01/10 07:15:25;;;;;;;0.00;0.00;;;;;;;;;;5090368;28;20482;-68
2022/01/10 07:17:51;;;;;;;1.08;1.08;;;;;;;;;;5090861;28;20431;-68
2022/01/10 07:20:16;;;;;;;0.00;0.00;;;;;;;;;;5088834;28;20040;-68
2022/01/10 07:22:41;;;;;;;0.00;0.00;;;;;;;;;;5089592;28;20516;-68
2022/01/10 07:25:07;;;;;;;0.00;0.00;;;;;;;;;;5090390;28;20384;-68
2022/01/10 07:27:33;;;;;;;0.00;0.00;;;;;;;;;;5090982;28;20731;-67
2022/01/10 07:29:59;;;;;;;0.00;0.00;;;;;;;;;;5089935;28;20538;-67
2022/01/10 07:32:29;;;;;;;0.00;0.00;;;;;;;;;;5089276;28;20024;-68
2022/01/10 07:34:54;;;;;;;;;;;;;;;;;;5091324;28;20051;-68
2022/01/10 07:37:20;;;;;;;0.10;0.10;;;;;;;;;;5089704;28;19954;-67
2022/01/10 07:39:45;;;;;;;0.00;0.00;;;;;;;;;;5090444;28;20348;-67
2022/01/10 07:42:11;;;;;;;0.95;0.95;;;;;;;;;;5090132;28;20035;-67
2022/01/10 07:44:36;;;;;;;0.45;0.45;;;;;;;;;;5090395;28;20020;-67
2022/01/10 07:47:02;;;;;;;0.00;0.00;;;;;;;;;;5089761;28;20024;-67
2022/01/10 07:49:27;;;;;;;0.00;0.00;;;;;;;;;;5090456;28;20012;-68
2022/01/10 07:51:53;;;;;;;0.00;0.00;;;;;;;;;;5086317;28;20069;-67
2022/01/10 07:54:18;;;;;;;0.00;0.00;;;;;;;;;;5088513;28;20092;-68
2022/01/10 07:56:43;;;;;;;0.00;0.00;;;;;;;;;;5090281;28;20024;-68
2022/01/10 07:59:09;;;;;;;0.00;0.00;;;;;;;;;;5089595;28;20024;-68
2022/01/10 08:01:34;;;;;;;0.00;0.00;;;;;;;;;;5090013;28;20028;-68
2022/01/10 08:03:59;;;;;;;0.00;0.00;;;;;;;;;;5090037;28;20031;-68
2022/01/10 08:06:24;;;;;;;0.00;0.00;;;;;;;;;;5089681;28;20028;-67
2022/01/10 08:08:50;;;;;;;0.20;0.20;;;;;;;;;;5090017;28;20023;-67
2022/01/10 08:11:15;;;;;;;0.00;0.00;;;;;;;;;;5089613;28;20028;-68
2022/01/10 08:13:43;;;;;;;0.08;0.08;;;;;;;;;;5089863;28;20035;-68
2022/01/10 08:16:08;;;;;;;0.20;0.20;;;;;;;;;;5089560;28;20107;-68
2022/01/10 08:18:34;;;;;;;0.00;0.00;;;;;;;;;;5087399;28;20549;-68
2022/01/10 08:21:00;;;;;;;0.00;0.00;;;;;;;;;;5087876;28;20020;-68
2022/01/10 08:23:25;;;;;;;0.03;0.03;;;;;;;;;;5089753;28;20465;-68
2022/01/10 08:25:50;;;;;;;0.00;0.00;;;;;;;;;;5089927;28;20020;-69
2022/01/10 08:28:16;;;;;;;0.80;0.80;;;;;;;;;;5089218;28;20031;-69
2022/01/10 08:30:41;;;;;;;0.00;0.00;;;;;;;;;;5088305;28;20047;-68
2022/01/10 08:33:06;;;;;;;0.00;0.00;;;;;;;;;;5089115;28;20127;-68
2022/01/10 08:35:32;;;;;;;0.00;0.00;;;;;;;;;;5089360;28;20277;-68
2022/01/10 08:37:57;;;;;;;0.00;0.00;;;;;;;;;;5089992;28;20023;-68
2022/01/10 08:40:22;;;;;;;0.00;0.00;;;;;;;;;;5088790;28;20107;-68
2022/01/10 08:42:47;;;;;;;0.00;0.00;;;;;;;;;;5086355;28;20036;-68
2022/01/10 08:45:13;;;;;;;2.65;2.53;;;;;;;;;;5086960;28;20020;-68
2022/01/10 08:47:38;;;;;;;0.00;0.00;;;;;;;;;;5087456;28;20032;-68
2022/01/10 08:50:05;;;;;;;0.00;0.00;;;;;;;;;;5087100;28;20099;-68
2022/01/10 08:52:30;;;;;;;0.00;0.00;;;;;;;;;;5088393;28;20449;-68
2022/01/10 08:54:56;;;;;;;3.95;3.78;;;;;;;;;;5088461;28;20024;-67
2022/01/10 08:57:21;;;;;;;0.00;0.00;;;;;;;;;;5087989;28;20505;-69
2022/01/10 08:59:46;;;;;;;0.57;0.30;;;;;;;;;;5088870;28;20020;-68
2022/01/10 09:02:12;;;;;;;0.00;0.00;;;;;;;;;;5088255;28;20088;-68
2022/01/10 09:04:37;;;;;;;0.00;0.00;;;;;;;;;;5088885;28;20483;-68
2022/01/10 09:07:03;;;;;;;0.00;0.00;;;;;;;;;;5088021;28;20385;-68
2022/01/10 09:09:29;;;;;;;0.13;0.08;;;;;;;;;;5088819;28;20051;-69
2022/01/10 09:11:55;;;;;;;0.00;0.00;;;;;;;;;;5089066;28;20024;-67
2022/01/10 09:14:20;;;;;;;4.15;3.83;;;;;;;;;;5087974;28;20031;-67
2022/01/10 09:16:46;;;;;;;0.00;0.00;;;;;;;;;;5086892;28;20039;-67
2022/01/10 09:19:12;;;;;;;0.00;0.00;;;;;;;;;;5087901;28;20488;-68
2022/01/10 09:21:37;;;;;;;2.28;2.17;;;;;;;;;;5088000;28;20194;-68
2022/01/10 09:24:02;;;;;;;0.00;0.00;;;;;;;;;;5087309;28;20020;-68
2022/01/10 09:26:28;;;;;;;2.65;1.65;;;;;;;;;;5088244;28;20024;-68
2022/01/10 09:28:53;;;;;;;0.30;0.30;;;;;;;;;;5088270;28;20110;-68
2022/01/10 09:31:20;;;;;;;0.00;0.00;;;;;;;;;;5088278;28;20069;-67
2022/01/10 09:33:52;;;;;;;0.00;0.00;;;;;;;;;;5088383;28;20490;-68
2022/01/10 09:36:17;;;;;;;0.00;0.00;;;;;;;;;;5086345;28;20024;-67
2022/01/10 09:38:42;;;;;;;0.00;0.00;;;;;;;;;;5087806;28;20043;-68
2022/01/10 09:41:08;;;;;;;2.15;0.45;;;;;;;;;;5087701;28;20069;-69
2022/01/10 09:43:34;;;;;;;0.17;0.17;;;;;;;;;;5087768;28;20035;-68
2022/01/10 09:46:00;;;;;;;0.00;0.00;;;;;;;;;;5086504;28;20016;-69
2022/01/10 09:48:25;;;;;;;0.00;0.00;;;;;;;;;;5087979;28;20024;-67
2022/01/10 09:50:50;;;;;;;0.00;0.00;;;;;;;;;;5088143;28;20048;-67
2022/01/10 09:53:17;;;;;;;0.00;0.00;;;;;;;;;;5087867;28;20519;-68
2022/01/10 09:55:42;;;;;;;1.17;1.17;;;;;;;;;;5088578;28;20026;-68
2022/01/10 09:58:09;;;;;;;0.00;0.00;;;;;;;;;;5086363;28;20107;-68
2022/01/10 10:00:34;;;;;;;4.85;4.65;;;;;;;;;;5087296;28;20072;-67
2022/01/10 10:03:00;;;;;;;0.03;0.03;;;;;;;;;;5087792;28;20024;-67
2022/01/10 10:05:25;;;;;;;0.00;0.00;;;;;;;;;;5087558;28;20069;-68
2022/01/10 10:07:51;;;;;;;4.25;4.07;;;;;;;;;;5087805;28;20095;-67
2022/01/10 10:10:17;;;;;;;0.00;0.00;;;;;;;;;;5087665;28;20112;-69
2022/01/10 10:12:44;;;;;;;0.00;0.00;;;;;;;;;;5087981;28;20024;-61
2022/01/10 10:15:11;;;;;;;0.00;0.00;;;;;;;;;;5085407;28;20069;-69
2022/01/10 10:17:37;;;;;;;0.00;0.00;;;;;;;;;;5088539;28;20091;-68
2022/01/10 10:20:07;;;;;;;0.00;0.00;;;;;;;;;;5088586;28;20185;-69
2022/01/10 10:22:32;;;;;;;;;;;;;;;;;;5088480;28;20032;-72
2022/01/10 10:24:57;;;;;;;0.00;0.00;;;;;;;;;;5088080;28;19923;-60
2022/01/10 10:27:22;;;;;;;0.00;0.00;;;;;;;;;;5086873;28;20020;-59
2022/01/10 10:29:48;;;;;;;0.70;0.70;;;;;;;;;;5087159;28;20048;-59
2022/01/10 10:32:15;;;;;;;0.00;0.00;;;;;;;;;;5087043;28;20392;-59
2022/01/10 10:34:41;;;;;;;1.20;1.20;;;;;;;;;;5088149;28;20036;-59
2022/01/10 10:37:13;;;;;;;0.00;0.00;;;;;;;;;;5087186;28;20042;-59
2022/01/10 10:39:42;;;;;;;0.00;0.00;;;;;;;;;;5086323;28;20411;-59
2022/01/10 10:42:09;;;;;;;0.03;0.03;;;;;;;;;;5087374;28;20031;-58
2022/01/10 10:44:35;;;;;;;0.60;0.60;;;;;;;;;;5086650;28;20016;-59
2022/01/10 10:47:00;;;;;;;0.00;0.00;;;;;;;;;;5087573;28;20465;-58
2022/01/10 10:49:31;;;;;;;0.20;0.20;;;;;;;;;;5085615;28;20368;-59
2022/01/10 10:51:57;;;;;;;0.00;0.00;;;;;;;;;;5086760;28;20472;-59
2022/01/10 10:54:23;;;;;;;0.15;0.15;;;;;;;;;;5090883;28;20077;-59
2022/01/10 10:56:49;;;;;;;0.10;0.10;;;;;;;;;;5091071;28;20028;-60
2022/01/10 10:59:14;;;;;;;0.00;0.00;;;;;;;;;;5089258;28;20039;-59
2022/01/10 11:01:41;;;;;;;0.00;0.00;;;;;;;;;;5090934;28;20039;-59
2022/01/10 11:04:09;;;;;;;0.00;0.00;;;;;;;;;;5090261;28;20093;-60
2022/01/10 11:06:34;;;;;;;0.40;0.40;;;;;;;;;;5090830;28;20017;-60
2022/01/10 11:09:01;;;;;;;0.00;0.00;;;;;;;;;;5091353;28;20016;-60
2022/01/10 11:11:27;;;;;;;0.00;0.00;;;;;;;;;;5087741;28;20066;-59
2022/01/10 11:13:56;;;;;;;0.00;0.00;;;;;;;;;;5089293;28;20055;-60
2022/01/10 11:16:21;;;;;;;0.52;0.52;;;;;;;;;;5090714;28;20407;-60
2022/01/10 11:18:48;;;;;;;0.00;0.00;;;;;;;;;;5090569;28;20032;-60
2022/01/10 11:21:13;;;;;;;0.25;0.25;;;;;;;;;;5089965;28;20031;-60
2022/01/10 11:23:39;;;;;;;0.13;0.13;;;;;;;;;;5090568;28;20782;-60
2022/01/10 11:26:08;;;;;;;0.57;0.57;;;;;;;;;;5090397;28;20019;-59
2022/01/10 11:28:33;;;;;;;0.00;0.00;;;;;;;;;;5090858;28;20024;-58
2022/01/10 11:31:00;;;;;;;0.00;0.00;;;;;;;;;;5090127;28;20472;-58
2022/01/10 11:33:26;;;;;;;0.00;0.00;;;;;;;;;;5090038;28;20106;-59
2022/01/10 11:35:52;;;;;;;0.00;0.00;;;;;;;;;;5090842;28;20093;-59
2022/01/10 11:38:17;;;;;;;1.05;1.05;;;;;;;;;;5088068;28;20020;-58
2022/01/10 11:40:43;;;;;;;0.00;0.00;;;;;;;;;;5087669;28;20034;-59
2022/01/10 11:43:08;;;;;;;0.00;0.00;;;;;;;;;;5090010;28;20046;-60
2022/01/10 11:45:41;;;;;;;0.00;0.00;;;;;;;;;;5090300;28;20408;-58
2022/01/10 11:48:06;;;;;;;0.30;0.30;;;;;;;;;;5090284;28;20425;-59
2022/01/10 11:50:32;;;;;;;0.55;0.40;;;;;;;;;;5089785;28;20052;-60
2022/01/10 11:52:59;;;;;;;3.05;2.83;;;;;;;;;;5089635;28;20496;-59
2022/01/10 11:55:31;;;;;;;2.10;2.10;;;;;;;;;;5089184;28;20465;-60
2022/01/10 11:58:15;;;;;;;0.10;0.10;;;;;;;;;;5090110;28;20096;-59
2022/01/10 12:00:41;;;;;;;0.00;0.00;;;;;;;;;;5086689;28;20111;-58
2022/01/10 12:03:06;;;;;;;0.80;0.57;;;;;;;;;;5089548;28;20452;-58
2022/01/10 12:05:31;;;;;;;0.13;0.13;;;;;;;;;;5088872;28;20020;-58
2022/01/10 12:07:56;;;;;;;0.60;0.60;;;;;;;;;;5086187;28;20026;-58
2022/01/10 12:10:22;;;;;;;0.00;0.00;;;;;;;;;;5086366;28;20017;-59
2022/01/10 12:12:51;;;;;;;0.28;0.28;;;;;;;;;;5087217;28;20016;-59
2022/01/10 12:15:16;;;;;;;0.00;0.00;;;;;;;;;;5081819;28;20032;-59
2022/01/10 12:17:41;;;;;;;0.00;0.00;;;;;;;;;;5088679;28;20082;-59
2022/01/10 12:20:08;;;;;;;0.00;0.00;;;;;;;;;;5086386;28;20047;-58
2022/01/10 12:22:33;;;;;;;0.00;0.00;;;;;;;;;;5085225;28;20201;-59
2022/01/10 12:24:58;;;;;;;0.00;0.00;;;;;;;;;;5084857;28;20131;-58
2022/01/10 12:27:24;;;;;;;0.30;0.30;;;;;;;;;;5087881;28;20419;-59
2022/01/10 12:29:50;;;;;;;0.00;0.00;;;;;;;;;;5088134;28;20075;-59
2022/01/10 12:32:15;;;;;;;0.00;0.00;;;;;;;;;;5087001;28;20473;-60
2022/01/10 12:34:42;;;;;;;0.57;0.57;;;;;;;;;;5087193;28;20124;-59
2022/01/10 12:37:07;;;;;;;0.00;0.00;;;;;;;;;;5087625;28;20020;-59
2022/01/10 12:39:35;;;;;;;0.00;0.00;;;;;;;;;;5087018;28;20054;-59
2022/01/10 12:42:00;;;;;;;5.18;0.90;;;;;;;;;;5088420;28;20032;-59
2022/01/10 12:44:26;;;;;;;0.00;0.00;;;;;;;;;;5087948;28;20027;-59
2022/01/10 12:46:52;;;;;;;0.00;0.00;;;;;;;;;;5086702;28;20031;-59
2022/01/10 12:49:17;;;;;;;10.13;0.63;;;;;;;;;;5088098;28;20035;-58
2022/01/10 12:51:44;;;;;;;1.27;1.27;;;;;;;;;;5087547;28;20020;-59
2022/01/10 12:54:12;;;;;;;4.88;4.53;;;;;;;;;;5086410;28;20427;-59
2022/01/10 12:56:37;;;;;;;0.00;0.00;;;;;;;;;;5088078;28;20023;-59
2022/01/10 12:59:02;;;;;;;1.25;1.17;;;;;;;;;;5086834;28;20536;-59
2022/01/10 13:01:27;;;;;;;0.20;0.20;;;;;;;;;;5087736;28;20036;-60
2022/01/10 13:04:02;;;;;;;1.23;1.15;;;;;;;;;;5087807;28;20020;-59
2022/01/10 13:06:30;;;;;;;6.10;5.53;;;;;;;;;;5085943;28;20028;-59
2022/01/10 13:08:56;;;;;;;0.30;0.30;;;;;;;;;;5086372;28;20027;-58
2022/01/10 13:11:23;;;;;;;0.73;0.73;;;;;;;;;;5086509;28;20024;-58
2022/01/10 13:13:48;;;;;;;0.00;0.00;;;;;;;;;;5086849;28;20081;-58
2022/01/10 13:16:23;;;;;;;0.20;0.20;;;;;;;;;;5087088;28;20553;-58
2022/01/10 13:19:01;;;;;;;0.55;0.52;;;;;;;;;;5086292;28;20032;-59
2022/01/10 13:21:28;;;;;;;0.13;0.13;;;;;;;;;;5087521;28;20031;-60
2022/01/10 13:24:07;;;;;;;0.00;0.00;;;;;;;;;;5085361;28;20341;-59
2022/01/10 13:26:33;;;;;;;1.83;1.60;;;;;;;;;;5090432;28;20016;-66
2022/01/10 13:28:58;;;;;;;0.00;0.00;;;;;;;;;;5086505;28;20073;-60
2022/01/10 13:31:36;;;;;;;0.20;0.20;;;;;;;;;;5086695;28;20028;-59
2022/01/10 13:34:03;;;;;;;;;;;;;;;;;;5081919;28;20731;-60
2022/01/10 13:36:41;;;;;;;6.83;1.80;;;;;;;;;;5084325;28;20000;-59
2022/01/10 13:39:16;;;;;;;0.30;0.30;;;;;;;;;;5087371;28;20641;-60
2022/01/10 13:41:55;;;;;;;0.17;0.17;;;;;;;;;;5086052;28;20027;-60
2022/01/10 13:44:20;;;;;;;0.28;0.28;;;;;;;;;;5086331;28;20031;-60
2022/01/10 13:46:45;;;;;;;0.20;0.20;;;;;;;;;;5087670;28;20028;-60
2022/01/10 13:49:25;;;;;;;0.00;0.00;;;;;;;;;;5087504;28;20016;-60
2022/01/10 13:52:06;;;;;;;0.00;0.00;;;;;;;;;;5087951;28;20024;-60
2022/01/10 13:54:31;;;;;;;8.20;3.30;;;;;;;;;;5087546;28;20035;-60
2022/01/10 13:56:57;;;;;;;0.00;0.00;;;;;;;;;;5088648;28;21884;-60
2022/01/10 13:59:22;;;;;;;0.00;0.00;;;;;;;;;;5086610;28;20127;-60
2022/01/10 14:01:54;;;;;;;0.15;0.15;;;;;;;;;;5086210;28;20111;-60
2022/01/10 14:04:23;;;;;;;0.30;0.30;;;;;;;;;;5086044;28;20020;-60
2022/01/10 14:06:48;;;;;;;0.00;0.00;;;;;;;;;;5083776;28;20139;-60
2022/01/10 14:09:15;;;;;;;0.10;0.10;;;;;;;;;;5087758;28;20118;-61
2022/01/10 14:11:40;;;;;;;0.00;0.00;;;;;;;;;;5086541;28;20492;-61
2022/01/10 14:14:08;;;;;;;0.00;0.00;;;;;;;;;;5087873;28;20024;-61
2022/01/10 14:16:36;;;;;;;0.93;0.93;;;;;;;;;;5086951;28;20028;-60
2022/01/10 14:19:02;;;;;;;0.88;0.88;;;;;;;;;;5088153;28;20023;-61
2022/01/10 14:21:28;;;;;;;1.67;1.13;;;;;;;;;;5087226;28;20368;-60
2022/01/10 14:23:53;;;;;;;0.00;0.00;;;;;;;;;;5087764;28;20103;-61
2022/01/10 14:26:18;;;;;;;1.55;1.55;;;;;;;;;;5090437;28;20035;-61
2022/01/10 14:28:45;;;;;;;0.65;0.65;;;;;;;;;;5091868;28;20028;-61
2022/01/10 14:31:10;;;;;;;0.77;0.77;;;;;;;;;;5090610;28;20057;-62
2022/01/10 14:33:36;;;;;;;0.00;0.00;;;;;;;;;;5090253;28;20037;-60
2022/01/10 14:36:02;;;;;;;0.70;0.70;;;;;;;;;;5091322;28;20034;-60
2022/01/10 14:38:28;;;;;;;0.22;0.15;;;;;;;;;;5090803;28;20020;-60
2022/01/10 14:40:54;;;;;;;2.97;2.88;;;;;;;;;;5091526;28;20032;-61
2022/01/10 14:43:19;;;;;;;0.00;0.00;;;;;;;;;;5091300;28;20031;-60
2022/01/10 14:45:45;;;;;;;0.05;0.03;;;;;;;;;;5090261;28;20107;-60
2022/01/10 14:48:10;;;;;;;0.93;0.93;;;;;;;;;;5091606;28;20020;-61